Time;durP1;ratioP1;P1;durP2;ratioP2;P2;SDS_P1;SDS_P2;PMS_P1;PMS_P2;Temp;Humidity;BMP_temperature;BMP_pressure;BME280_temperature;BME280_humidity;BME280_pressure;Samples;Min_cycle;Max_cycle;Signal;HPM_P1;HPM_P2
2023/12/10 00:01:57;;;;;;;9.43;2.67;;;9.40;89.00;;;;;;4889206;29;20496;-77
2023/12/10 00:04:25;;;;;;;11.47;2.30;;;9.40;88.90;;;;;;4874937;29;20477;-77
2023/12/10 00:07:00;;;;;;;12.87;3.00;;;9.40;88.80;;;;;;4873926;29;20483;-77
2023/12/10 00:09:28;;;;;;;11.03;2.80;;;9.40;88.70;;;;;;4874601;29;20455;-77
2023/12/10 00:11:56;;;;;;;10.53;3.40;;;9.40;88.60;;;;;;4874546;29;20450;-77
2023/12/10 00:14:25;;;;;;;15.73;2.70;;;9.40;88.50;;;;;;4875066;29;20462;-77
2023/12/10 00:16:54;;;;;;;13.57;2.77;;;9.40;88.50;;;;;;4888380;29;20474;-77
2023/12/10 00:19:22;;;;;;;14.50;2.50;;;9.40;88.20;;;;;;4875881;29;20470;-77
2023/12/10 00:21:50;;;;;;;16.57;3.27;;;9.40;88.00;;;;;;4875374;29;20502;-77
2023/12/10 00:24:21;;;;;;;14.40;3.13;;;9.40;87.80;;;;;;4875942;29;20466;-77
2023/12/10 00:26:50;;;;;;;12.60;2.70;;;9.40;87.60;;;;;;4863754;29;20848;-77
2023/12/10 00:29:18;;;;;;;24.03;4.13;;;9.40;87.30;;;;;;4890233;29;20538;-77
2023/12/10 00:31:47;;;;;;;21.30;4.70;;;9.40;87.30;;;;;;4877124;29;20479;-77
2023/12/10 00:34:15;;;;;;;19.33;3.73;;;9.30;87.30;;;;;;4877436;29;20466;-77
2023/12/10 00:36:43;;;;;;;26.83;4.90;;;9.40;87.10;;;;;;4876705;29;20573;-76
2023/12/10 00:39:12;;;;;;;13.20;3.70;;;9.40;87.10;;;;;;4877834;29;20469;-77
2023/12/10 00:41:41;;;;;;;11.50;2.43;;;9.40;86.90;;;;;;4889040;29;20998;-77
2023/12/10 00:44:09;;;;;;;20.77;3.53;;;9.30;86.70;;;;;;4891778;29;20803;-77
2023/12/10 00:46:37;;;;;;;16.13;3.30;;;9.30;86.80;;;;;;4877963;29;20474;-77
2023/12/10 00:49:05;;;;;;;20.10;3.30;;;9.40;86.60;;;;;;4878576;29;20463;-77
2023/12/10 00:51:33;;;;;;;21.30;5.13;;;9.40;86.60;;;;;;4877465;29;20951;-77
2023/12/10 00:54:03;;;;;;;20.07;3.90;;;9.40;86.60;;;;;;4890583;29;20561;-77
2023/12/10 00:56:32;;;;;;;15.97;4.43;;;9.40;86.50;;;;;;4876734;29;20470;-77
2023/12/10 00:59:01;;;;;;;15.07;2.63;;;9.40;86.50;;;;;;4877157;29;20466;-77
2023/12/10 01:01:30;;;;;;;18.60;3.60;;;9.40;86.40;;;;;;4876479;29;20490;-77
2023/12/10 01:03:58;;;;;;;22.03;4.10;;;9.40;86.30;;;;;;4876303;29;20473;-77
2023/12/10 01:06:26;;;;;;;14.83;3.60;;;9.40;86.30;;;;;;4877013;29;20490;-77
2023/12/10 01:08:54;;;;;;;20.73;3.73;;;9.40;86.40;;;;;;4876052;29;20518;-78
2023/12/10 01:11:22;;;;;;;20.30;4.47;;;9.50;86.30;;;;;;4891589;29;20469;-77
2023/12/10 01:13:50;;;;;;;19.43;4.10;;;9.50;86.10;;;;;;4877116;29;20459;-77
2023/12/10 01:16:19;;;;;;;32.13;5.40;;;9.50;86.10;;;;;;4889707;29;20463;-77
2023/12/10 01:18:47;;;;;;;21.53;4.50;;;9.50;86.00;;;;;;4877178;29;20470;-77
2023/12/10 01:21:17;;;;;;;23.63;4.40;;;9.50;86.00;;;;;;4876085;29;20818;-77
2023/12/10 01:23:45;;;;;;;25.17;5.00;;;9.50;86.00;;;;;;4877166;29;20565;-77
2023/12/10 01:26:14;;;;;;;20.30;4.27;;;9.40;86.00;;;;;;4878345;29;20447;-77
2023/12/10 01:28:42;;;;;;;22.73;4.77;;;9.50;85.90;;;;;;4876228;29;20475;-77
2023/12/10 01:31:10;;;;;;;21.57;5.13;;;9.40;85.90;;;;;;4877428;29;20489;-77
2023/12/10 01:33:40;;;;;;;20.00;5.20;;;9.40;85.90;;;;;;4876595;29;20463;-77
2023/12/10 01:36:09;;;;;;;21.23;5.13;;;9.40;85.90;;;;;;4877378;29;20474;-77
2023/12/10 01:38:37;;;;;;;29.83;4.93;;;9.40;85.80;;;;;;4877110;29;20827;-77
2023/12/10 01:41:06;;;;;;;27.73;4.70;;;9.40;85.80;;;;;;4878000;29;20880;-77
2023/12/10 01:43:34;;;;;;;26.53;6.10;;;9.40;85.80;;;;;;4875817;29;20454;-77
2023/12/10 01:46:04;;;;;;;22.53;5.43;;;9.40;85.80;;;;;;4874426;29;20470;-77
2023/12/10 01:48:32;;;;;;;28.60;5.83;;;9.40;85.70;;;;;;4876676;29;20466;-77
2023/12/10 01:51:02;;;;;;;27.00;4.80;;;9.40;85.60;;;;;;4877343;29;20787;-77
2023/12/10 01:53:30;;;;;;;25.43;5.90;;;9.40;85.60;;;;;;4875603;29;20980;-77
2023/12/10 01:55:58;;;;;;;24.83;5.30;;;9.40;85.60;;;;;;4876772;29;20549;-77
2023/12/10 01:58:27;;;;;;;31.23;6.47;;;9.40;85.50;;;;;;4891182;29;20566;-77
2023/12/10 02:00:55;;;;;;;24.93;7.03;;;9.40;85.50;;;;;;4872411;29;20494;-76
2023/12/10 02:03:23;;;;;;;34.60;5.73;;;9.40;85.50;;;;;;4876364;29;20802;-77
2023/12/10 02:05:51;;;;;;;26.13;5.90;;;9.40;85.40;;;;;;4875301;29;20470;-77
2023/12/10 02:08:22;;;;;;;35.33;5.80;;;9.40;85.40;;;;;;4875235;29;20451;-77
2023/12/10 02:10:50;;;;;;;26.30;5.10;;;9.40;85.40;;;;;;4876581;29;20468;-77
2023/12/10 02:13:18;;;;;;;46.47;6.70;;;9.40;85.30;;;;;;4886982;29;20461;-77
2023/12/10 02:15:46;;;;;;;26.27;6.40;;;9.40;85.30;;;;;;4875281;29;20459;-77
2023/12/10 02:18:17;;;;;;;31.77;7.20;;;9.40;85.30;;;;;;4876608;29;20458;-77
2023/12/10 02:20:46;;;;;;;31.73;6.30;;;9.40;85.20;;;;;;4875428;29;20569;-77
2023/12/10 02:23:26;;;;;;;26.00;6.53;;;9.40;85.20;;;;;;4874040;29;20498;-77
2023/12/10 02:25:56;;;;;;;24.70;5.80;;;9.40;85.20;;;;;;4875799;29;20471;-77
2023/12/10 02:28:25;;;;;;;35.70;6.57;;;9.40;85.10;;;;;;4875091;29;20528;-77
2023/12/10 02:30:53;;;;;;;23.30;5.30;;;9.50;85.10;;;;;;4874979;29;20510;-77
2023/12/10 02:33:21;;;;;;;26.00;5.83;;;9.50;85.00;;;;;;4875654;29;20505;-77
2023/12/10 02:35:49;;;;;;;30.07;5.63;;;9.50;85.00;;;;;;4889492;29;20491;-77
2023/12/10 02:38:20;;;;;;;26.00;5.50;;;9.50;84.90;;;;;;4875613;29;20463;-77
2023/12/10 02:40:49;;;;;;;33.17;6.40;;;9.50;84.80;;;;;;4874445;29;20470;-77
2023/12/10 02:43:19;;;;;;;27.93;5.40;;;9.50;84.70;;;;;;4873628;29;20503;-77
2023/12/10 02:45:47;;;;;;;25.77;4.60;;;9.50;84.80;;;;;;4889152;29;20478;-77
2023/12/10 02:48:21;;;;;;;20.70;5.47;;;9.50;84.70;;;;;;4874682;29;20935;-77
2023/12/10 02:50:50;;;;;;;23.50;5.20;;;9.40;84.60;;;;;;4887557;29;20539;-76
2023/12/10 02:53:18;;;;;;;19.37;5.83;;;9.50;84.60;;;;;;4872390;29;20451;-77
2023/12/10 02:55:46;;;;;;;20.93;5.30;;;9.50;84.40;;;;;;4873103;29;20565;-77
2023/12/10 02:58:15;;;;;;;21.67;7.33;;;9.40;84.50;;;;;;4875313;29;20825;-77
2023/12/10 03:00:45;;;;;;;34.30;6.80;;;9.40;84.50;;;;;;4872596;29;20562;-77
2023/12/10 03:03:13;;;;;;;34.23;5.37;;;9.40;84.40;;;;;;4875487;29;20585;-77
2023/12/10 03:05:41;;;;;;;20.60;5.83;;;9.40;84.30;;;;;;4888975;29;20482;-77
2023/12/10 03:08:09;;;;;;;36.37;6.83;;;9.40;84.30;;;;;;4874536;29;20467;-77
2023/12/10 03:10:37;;;;;;;35.33;5.93;;;9.40;84.20;;;;;;4888058;29;20932;-77
2023/12/10 03:13:05;;;;;;;28.53;7.73;;;9.40;84.20;;;;;;4874534;29;20458;-77
2023/12/10 03:15:33;;;;;;;37.60;6.73;;;9.40;84.30;;;;;;4874402;29;20831;-77
2023/12/10 03:18:03;;;;;;;33.27;6.67;;;9.40;84.30;;;;;;4874193;29;20897;-77
2023/12/10 03:20:32;;;;;;;29.53;6.57;;;9.40;84.30;;;;;;4874949;29;20466;-77
2023/12/10 03:23:01;;;;;;;28.63;5.60;;;9.40;84.20;;;;;;4874119;29;20498;-77
2023/12/10 03:25:29;;;;;;;35.70;6.50;;;9.40;84.20;;;;;;4889500;29;20466;-77
2023/12/10 03:27:57;;;;;;;35.30;6.80;;;9.40;84.20;;;;;;4874739;29;21566;-76
2023/12/10 03:30:25;;;;;;;32.27;6.17;;;9.30;84.30;;;;;;4873585;29;20499;-76
2023/12/10 03:32:53;;;;;;;25.83;5.50;;;9.30;84.50;;;;;;4889051;29;20459;-76
2023/12/10 03:35:23;;;;;;;37.87;5.90;;;9.30;84.50;;;;;;4874797;29;20497;-76
2023/12/10 03:37:51;;;;;;;28.20;5.60;;;9.30;84.40;;;;;;4887697;29;20463;-76
2023/12/10 03:40:19;;;;;;;24.90;5.50;;;9.30;84.40;;;;;;4885097;29;20474;-76
2023/12/10 03:42:47;;;;;;;32.27;6.13;;;9.30;84.40;;;;;;4874058;29;20478;-76
2023/12/10 03:45:15;;;;;;;27.13;5.70;;;9.30;84.40;;;;;;4873917;29;20488;-76
2023/12/10 03:47:46;;;;;;;27.23;5.57;;;9.30;84.40;;;;;;4879653;29;20522;-76
2023/12/10 03:50:15;;;;;;;22.17;5.80;;;9.30;84.40;;;;;;4873416;29;20467;-76
2023/12/10 03:52:44;;;;;;;26.93;6.10;;;9.20;84.40;;;;;;4888872;29;20966;-76
2023/12/10 03:55:12;;;;;;;24.67;5.43;;;9.20;84.40;;;;;;4872994;29;20467;-76
2023/12/10 03:57:40;;;;;;;30.37;5.20;;;9.20;84.40;;;;;;4874553;29;20458;-76
2023/12/10 04:00:09;;;;;;;25.27;5.30;;;9.20;84.40;;;;;;4872618;29;20470;-76
2023/12/10 04:02:40;;;;;;;21.10;4.33;;;9.20;84.40;;;;;;4872834;29;20862;-76
2023/12/10 04:05:11;;;;;;;23.50;5.20;;;9.20;84.30;;;;;;4872955;29;20461;-76
2023/12/10 04:07:40;;;;;;;26.93;4.20;;;9.20;84.20;;;;;;4876876;29;20462;-76
2023/12/10 04:10:10;;;;;;;19.70;3.97;;;9.20;84.00;;;;;;4892819;29;20821;-76
2023/12/10 04:12:38;;;;;;;21.60;4.00;;;9.20;83.90;;;;;;4878326;29;20887;-76
2023/12/10 04:15:07;;;;;;;19.00;3.80;;;9.20;83.90;;;;;;4891967;29;20470;-76
2023/12/10 04:17:35;;;;;;;18.37;3.40;;;9.20;83.70;;;;;;4877896;29;20539;-76
2023/12/10 04:20:04;;;;;;;14.00;3.10;;;9.20;83.50;;;;;;4876823;29;20458;-76
2023/12/10 04:22:32;;;;;;;14.73;4.10;;;9.10;83.40;;;;;;4878306;29;20550;-76
2023/12/10 04:25:00;;;;;;;22.30;5.20;;;9.10;83.40;;;;;;4877562;29;21493;-76
2023/12/10 04:27:30;;;;;;;15.10;3.60;;;9.10;83.30;;;;;;4877819;29;21045;-76
2023/12/10 04:29:58;;;;;;;19.90;3.27;;;9.00;83.30;;;;;;4878023;29;20557;-76
2023/12/10 04:32:26;;;;;;;16.90;2.87;;;9.00;83.40;;;;;;4892371;29;20490;-76
2023/12/10 04:34:55;;;;;;;17.33;3.30;;;9.00;83.30;;;;;;4878508;29;20957;-77
2023/12/10 04:37:23;;;;;;;12.00;2.67;;;9.00;83.20;;;;;;4878545;29;20462;-76
2023/12/10 04:39:51;;;;;;;14.87;3.57;;;9.00;83.10;;;;;;4878106;29;20458;-76
2023/12/10 04:42:19;;;;;;;18.47;3.80;;;9.00;83.00;;;;;;4877109;29;20545;-76
2023/12/10 04:44:49;;;;;;;17.57;3.60;;;9.00;83.00;;;;;;4876939;29;20497;-76
2023/12/10 04:47:17;;;;;;;14.60;3.33;;;9.00;82.90;;;;;;4877557;29;20474;-76
2023/12/10 04:49:45;;;;;;;20.43;3.80;;;8.90;82.90;;;;;;4878414;29;21034;-76
2023/12/10 04:52:13;;;;;;;15.40;3.23;;;8.90;82.80;;;;;;4892476;29;20984;-76
2023/12/10 04:54:41;;;;;;;15.13;2.73;;;8.90;82.70;;;;;;4875931;29;21059;-76
2023/12/10 04:57:10;;;;;;;14.67;3.20;;;8.90;82.80;;;;;;4878042;29;20451;-76
2023/12/10 04:59:38;;;;;;;16.23;3.27;;;8.90;82.80;;;;;;4878477;29;20486;-76
2023/12/10 05:02:07;;;;;;;15.60;2.80;;;8.90;82.80;;;;;;4877344;29;20482;-76
2023/12/10 05:04:35;;;;;;;15.40;3.70;;;8.90;82.70;;;;;;4875121;29;20478;-79
2023/12/10 05:07:03;;;;;;;16.37;3.00;;;8.90;82.70;;;;;;4876728;29;20470;-76
2023/12/10 05:09:32;;;;;;;14.70;3.47;;;8.90;82.70;;;;;;4877806;29;20477;-75
2023/12/10 05:12:00;;;;;;;20.20;3.50;;;8.90;82.70;;;;;;4877471;29;20467;-75
2023/12/10 05:14:28;;;;;;;14.03;2.77;;;8.90;82.60;;;;;;4876983;29;20455;-75
2023/12/10 05:16:56;;;;;;;18.80;3.30;;;8.90;82.60;;;;;;4889998;29;20463;-76
2023/12/10 05:19:25;;;;;;;15.57;4.03;;;8.90;82.60;;;;;;4892788;29;20939;-76
2023/12/10 05:21:53;;;;;;;18.17;3.00;;;9.00;82.60;;;;;;4877470;29;20562;-76
2023/12/10 05:24:21;;;;;;;17.90;4.03;;;8.90;82.50;;;;;;4878134;29;20577;-76
2023/12/10 05:26:49;;;;;;;13.13;3.33;;;8.90;82.50;;;;;;4877543;29;20450;-76
2023/12/10 05:29:17;;;;;;;25.17;3.80;;;8.90;82.40;;;;;;4883220;29;20486;-76
2023/12/10 05:31:46;;;;;;;17.00;3.60;;;8.90;82.30;;;;;;4889775;29;20490;-77
2023/12/10 05:34:14;;;;;;;15.37;3.37;;;8.90;82.20;;;;;;4875986;29;20451;-76
2023/12/10 05:36:43;;;;;;;14.83;3.80;;;8.90;82.10;;;;;;4892328;29;20801;-76
2023/12/10 05:39:11;;;;;;;15.60;3.13;;;8.90;82.20;;;;;;4877503;29;20470;-76
2023/12/10 05:41:39;;;;;;;18.27;4.20;;;8.90;82.10;;;;;;4877571;29;20455;-76
2023/12/10 05:44:07;;;;;;;16.73;3.40;;;8.90;82.10;;;;;;4874064;29;20481;-76
2023/12/10 05:46:35;;;;;;;15.23;2.70;;;8.90;82.00;;;;;;4891560;29;20480;-76
2023/12/10 05:49:04;;;;;;;13.50;2.60;;;8.90;81.90;;;;;;4869529;29;20477;-77
2023/12/10 05:51:32;;;;;;;16.83;3.87;;;8.90;81.90;;;;;;4891805;29;20968;-76
2023/12/10 05:54:02;;;;;;;13.97;3.60;;;8.90;81.90;;;;;;4891574;29;20462;-77
2023/12/10 05:56:30;;;;;;;18.17;4.30;;;8.80;81.90;;;;;;4877258;29;20459;-77
2023/12/10 05:59:00;;;;;;;12.77;3.53;;;8.80;81.90;;;;;;4888996;29;20466;-77
2023/12/10 06:01:29;;;;;;;14.47;3.30;;;8.80;81.90;;;;;;4890251;29;20495;-77
2023/12/10 06:03:57;;;;;;;20.83;3.47;;;8.80;81.90;;;;;;4874835;29;20573;-77
2023/12/10 06:06:25;;;;;;;21.70;3.80;;;8.80;81.90;;;;;;4875127;29;20518;-77
2023/12/10 06:08:53;;;;;;;18.00;3.40;;;8.80;81.90;;;;;;4875684;29;20492;-75
2023/12/10 06:11:23;;;;;;;14.00;3.50;;;8.80;81.90;;;;;;4876200;29;20473;-75
2023/12/10 06:13:51;;;;;;;18.63;4.07;;;8.80;82.00;;;;;;4875626;29;20478;-75
2023/12/10 06:16:19;;;;;;;15.23;3.50;;;8.90;81.90;;;;;;4876568;29;20463;-76
2023/12/10 06:18:47;;;;;;;21.23;3.50;;;8.90;81.90;;;;;;4876439;29;20451;-75
2023/12/10 06:21:15;;;;;;;22.70;3.67;;;8.90;81.90;;;;;;4891527;29;20494;-75
2023/12/10 06:23:43;;;;;;;22.33;4.10;;;8.90;81.80;;;;;;4874858;29;20514;-75
2023/12/10 06:26:11;;;;;;;22.73;4.90;;;9.00;81.80;;;;;;4873222;29;20524;-75
2023/12/10 06:28:41;;;;;;;16.07;3.83;;;9.00;81.70;;;;;;4875518;29;20459;-77
2023/12/10 06:31:09;;;;;;;18.77;4.67;;;9.00;81.70;;;;;;4875001;29;20478;-77
2023/12/10 06:33:37;;;;;;;19.90;4.80;;;9.00;81.70;;;;;;4877127;29;20463;-77
2023/12/10 06:36:05;;;;;;;20.27;4.50;;;9.00;81.70;;;;;;4877162;29;21000;-77
2023/12/10 06:38:34;;;;;;;27.47;4.93;;;9.00;81.70;;;;;;4877010;29;20912;-76
2023/12/10 06:41:02;;;;;;;24.17;3.90;;;9.00;81.70;;;;;;4876078;29;20788;-77
2023/12/10 06:43:30;;;;;;;24.40;4.07;;;9.00;81.60;;;;;;4876860;29;20455;-77
2023/12/10 06:46:00;;;;;;;22.07;3.93;;;9.00;81.60;;;;;;4874468;29;20545;-76
2023/12/10 06:48:28;;;;;;;19.00;5.67;;;9.00;81.60;;;;;;4876242;29;20495;-77
2023/12/10 06:50:56;;;;;;;27.30;4.70;;;9.00;81.60;;;;;;4891142;29;20466;-76
2023/12/10 06:53:24;;;;;;;19.47;5.40;;;9.10;81.30;;;;;;4874682;29;20459;-77
2023/12/10 06:55:52;;;;;;;22.87;4.97;;;9.10;81.40;;;;;;4876387;29;20939;-77
2023/12/10 06:58:20;;;;;;;18.00;3.40;;;9.10;81.30;;;;;;4877443;29;20471;-76
2023/12/10 07:00:48;;;;;;;15.93;3.33;;;9.20;81.10;;;;;;4875489;29;20557;-77
2023/12/10 07:03:18;;;;;;;18.07;3.73;;;9.20;81.00;;;;;;4888509;29;20474;-77
2023/12/10 07:05:46;;;;;;;18.90;3.90;;;9.20;81.00;;;;;;4876670;29;20486;-77
2023/12/10 07:08:14;;;;;;;22.70;4.97;;;9.20;80.90;;;;;;4889688;29;20477;-77
2023/12/10 07:10:42;;;;;;;23.63;5.60;;;9.20;80.80;;;;;;4874640;29;20466;-79
2023/12/10 07:13:10;;;;;;;23.50;4.40;;;9.20;80.70;;;;;;4873562;29;20935;-77
2023/12/10 07:15:39;;;;;;;26.23;4.43;;;9.20;80.60;;;;;;4875164;29;20462;-77
2023/12/10 07:18:07;;;;;;;15.07;4.10;;;9.20;80.60;;;;;;4868886;29;20538;-77
2023/12/10 07:20:36;;;;;;;19.20;4.60;;;9.20;80.60;;;;;;4888826;29;20486;-77
2023/12/10 07:23:04;;;;;;;21.07;4.50;;;9.20;80.60;;;;;;4889400;29;20454;-77
2023/12/10 07:25:32;;;;;;;19.43;4.40;;;9.20;80.60;;;;;;4890661;29;20502;-77
2023/12/10 07:28:00;;;;;;;20.37;4.20;;;9.20;80.50;;;;;;4889816;29;20467;-77
2023/12/10 07:30:29;;;;;;;20.27;4.57;;;9.20;80.40;;;;;;4874973;29;20831;-77
2023/12/10 07:32:57;;;;;;;20.13;3.80;;;9.20;80.30;;;;;;4875570;29;20574;-77
2023/12/10 07:35:25;;;;;;;16.07;3.63;;;9.30;80.30;;;;;;4888008;29;21005;-77
2023/12/10 07:37:55;;;;;;;20.17;4.10;;;9.30;80.20;;;;;;4888776;29;20466;-77
2023/12/10 07:40:23;;;;;;;25.17;5.13;;;9.20;80.10;;;;;;4889962;29;20475;-76
2023/12/10 07:42:51;;;;;;;24.73;4.27;;;9.30;80.10;;;;;;4873548;29;21431;-76
2023/12/10 07:45:19;;;;;;;17.03;4.50;;;9.30;80.20;;;;;;4872917;29;21066;-77
2023/12/10 07:47:47;;;;;;;18.40;4.40;;;9.30;80.00;;;;;;4874273;29;20466;-77
2023/12/10 07:50:15;;;;;;;23.93;4.07;;;9.30;79.90;;;;;;4874622;29;20481;-76
2023/12/10 07:52:43;;;;;;;17.27;4.27;;;9.30;79.90;;;;;;4890177;29;20491;-77
2023/12/10 07:55:12;;;;;;;14.50;4.80;;;9.30;79.90;;;;;;4874024;29;20474;-76
2023/12/10 07:57:40;;;;;;;14.97;3.90;;;9.30;79.80;;;;;;4872334;29;20477;-76
2023/12/10 08:00:10;;;;;;;18.60;3.20;;;9.30;79.90;;;;;;4872522;29;20463;-77
2023/12/10 08:02:40;;;;;;;18.37;3.67;;;9.30;79.70;;;;;;4874101;29;20476;-77
2023/12/10 08:05:09;;;;;;;13.60;3.23;;;9.30;79.50;;;;;;4874311;29;20494;-77
2023/12/10 08:07:37;;;;;;;15.30;3.73;;;9.30;79.60;;;;;;4889583;29;20507;-76
2023/12/10 08:10:06;;;;;;;18.87;3.27;;;9.30;79.50;;;;;;4875487;29;20946;-76
2023/12/10 08:12:35;;;;;;;15.73;4.00;;;9.40;79.30;;;;;;4878481;29;20462;-76
2023/12/10 08:15:05;;;;;;;15.93;3.77;;;9.40;79.30;;;;;;4875427;29;21208;-76
2023/12/10 08:17:32;;;;;;;25.57;4.40;;;9.40;79.00;;;;;;4874610;29;20763;-76
2023/12/10 08:20:01;;;;;;;23.57;4.13;;;9.40;79.00;;;;;;4874846;29;20477;-76
2023/12/10 08:22:29;;;;;;;21.43;3.80;;;9.40;79.00;;;;;;4868150;29;20466;-77
2023/12/10 08:24:57;;;;;;;19.80;3.43;;;9.40;78.90;;;;;;4886031;29;21006;-76
2023/12/10 08:27:25;;;;;;;17.83;3.40;;;9.40;78.80;;;;;;4875124;29;20478;-77
2023/12/10 08:29:55;;;;;;;15.77;4.43;;;9.40;78.80;;;;;;4875077;29;20924;-76
2023/12/10 08:32:23;;;;;;;18.03;3.90;;;9.50;78.70;;;;;;4873732;29;22302;-77
2023/12/10 08:34:51;;;;;;;14.30;3.40;;;9.50;78.70;;;;;;4874917;29;20462;-77
2023/12/10 08:37:19;;;;;;;13.97;3.90;;;9.50;78.70;;;;;;4875545;29;20553;-77
2023/12/10 08:39:49;;;;;;;11.07;3.20;;;9.50;78.60;;;;;;4888665;29;20788;-77
2023/12/10 08:42:17;;;;;;;18.07;3.40;;;9.50;78.50;;;;;;4888378;29;20462;-77
2023/12/10 08:44:45;;;;;;;17.07;4.40;;;9.50;78.50;;;;;;4875126;29;20546;-77
2023/12/10 08:47:14;;;;;;;22.73;3.30;;;9.50;78.50;;;;;;4873989;29;20486;-77
2023/12/10 08:49:42;;;;;;;13.53;3.90;;;9.60;78.50;;;;;;4873046;29;21431;-77
2023/12/10 08:52:10;;;;;;;13.97;3.77;;;9.60;78.40;;;;;;4878380;29;20466;-78
2023/12/10 08:54:38;;;;;;;17.10;3.60;;;9.60;78.40;;;;;;4872274;29;20794;-77
2023/12/10 08:57:06;;;;;;;14.63;3.20;;;9.60;78.40;;;;;;4877727;29;20565;-77
2023/12/10 08:59:34;;;;;;;17.40;3.70;;;9.60;78.40;;;;;;4877465;29;20800;-76
2023/12/10 09:02:02;;;;;;;19.27;3.30;;;9.60;78.30;;;;;;4876715;29;20490;-77
2023/12/10 09:04:31;;;;;;;15.33;3.50;;;9.60;78.40;;;;;;4876232;29;20463;-76
2023/12/10 09:06:59;;;;;;;14.63;3.50;;;9.60;78.40;;;;;;4877993;29;20494;-77
2023/12/10 09:09:28;;;;;;;17.80;3.90;;;9.70;78.30;;;;;;4879073;29;20498;-77
2023/12/10 09:11:56;;;;;;;27.97;5.43;;;9.60;78.20;;;;;;4872981;29;20474;-77
2023/12/10 09:14:24;;;;;;;21.93;3.30;;;9.70;78.10;;;;;;4878840;29;20997;-76
2023/12/10 09:16:53;;;;;;;14.70;3.43;;;9.70;78.10;;;;;;4877302;29;20473;-77
2023/12/10 09:19:22;;;;;;;13.33;3.50;;;9.70;78.10;;;;;;4877649;29;20473;-79
2023/12/10 09:21:52;;;;;;;17.73;3.70;;;9.70;78.20;;;;;;4878174;29;20463;-78
2023/12/10 09:24:20;;;;;;;18.67;3.53;;;9.70;78.20;;;;;;4878558;29;20462;-78
2023/12/10 09:26:48;;;;;;;16.40;3.37;;;9.70;78.10;;;;;;4880143;29;20487;-78
2023/12/10 09:29:16;;;;;;;14.87;3.63;;;9.80;78.10;;;;;;4879437;29;20467;-77
2023/12/10 09:31:44;;;;;;;15.87;3.70;;;9.80;78.20;;;;;;4878478;29;20490;-77
2023/12/10 09:34:12;;;;;;;24.30;3.87;;;9.80;78.00;;;;;;4888771;29;20475;-77
2023/12/10 09:36:40;;;;;;;18.30;3.33;;;9.90;78.00;;;;;;4878608;29;20789;-77
2023/12/10 09:39:10;;;;;;;15.43;4.00;;;9.90;78.00;;;;;;4893522;29;20470;-78
2023/12/10 09:41:38;;;;;;;16.27;3.30;;;9.90;77.80;;;;;;4878125;29;20466;-77
2023/12/10 09:44:06;;;;;;;17.63;3.60;;;9.90;77.60;;;;;;4875956;29;20478;-76
2023/12/10 09:46:34;;;;;;;16.07;3.90;;;9.90;77.60;;;;;;4876555;29;20494;-77
2023/12/10 09:49:03;;;;;;;16.80;3.97;;;9.90;77.40;;;;;;4891714;29;20466;-77
2023/12/10 09:51:31;;;;;;;13.10;2.60;;;9.80;77.40;;;;;;4891971;29;20455;-76
2023/12/10 09:53:59;;;;;;;21.00;3.67;;;9.80;77.40;;;;;;4892000;29;20462;-76
2023/12/10 09:56:29;;;;;;;13.90;3.90;;;9.80;77.30;;;;;;4889029;29;20480;-76
2023/12/10 09:58:57;;;;;;;21.00;3.13;;;9.80;77.30;;;;;;4877444;29;20555;-76
2023/12/10 10:01:25;;;;;;;16.10;3.53;;;9.80;77.30;;;;;;4890979;29;20535;-77
2023/12/10 10:03:53;;;;;;;20.23;3.63;;;9.80;77.20;;;;;;4871424;29;20482;-76
2023/12/10 10:06:21;;;;;;;17.87;4.10;;;9.80;77.30;;;;;;4872074;29;21047;-78
2023/12/10 10:08:49;;;;;;;22.97;3.40;;;9.80;77.20;;;;;;4875000;29;20458;-75
2023/12/10 10:11:17;;;;;;;15.63;4.07;;;9.90;77.20;;;;;;4875670;29;20469;-75
2023/12/10 10:13:52;;;;;;;15.30;3.70;;;10.00;77.10;;;;;;4875711;29;20454;-75
2023/12/10 10:16:20;;;;;;;14.83;3.07;;;10.00;77.00;;;;;;4873038;29;20462;-75
2023/12/10 10:18:49;;;;;;;18.03;3.20;;;10.00;76.90;;;;;;4885383;29;20565;-75
2023/12/10 10:21:17;;;;;;;22.33;3.57;;;10.00;76.80;;;;;;4882537;29;20963;-76
2023/12/10 10:23:45;;;;;;;11.30;3.30;;;10.10;76.60;;;;;;4873753;29;20458;-75
2023/12/10 10:26:14;;;;;;;15.80;3.00;;;10.10;76.40;;;;;;4886015;29;20501;-74
2023/12/10 10:28:42;;;;;;;13.73;2.90;;;10.10;76.50;;;;;;4876014;29;20941;-74
2023/12/10 10:31:11;;;;;;;17.60;3.20;;;10.10;76.30;;;;;;4874286;29;20641;-74
2023/12/10 10:33:40;;;;;;;17.27;3.50;;;10.10;76.30;;;;;;4874297;29;21352;-75
2023/12/10 10:36:09;;;;;;;14.83;3.07;;;10.20;76.20;;;;;;4878224;29;20466;-75
2023/12/10 10:38:37;;;;;;;21.07;3.57;;;10.20;76.00;;;;;;4876781;29;20482;-76
2023/12/10 10:41:05;;;;;;;19.07;3.67;;;10.20;76.00;;;;;;4889537;29;20467;-76
2023/12/10 10:43:34;;;;;;;17.23;3.37;;;10.20;75.90;;;;;;4875264;29;20462;-75
2023/12/10 10:46:02;;;;;;;14.80;3.40;;;10.20;76.00;;;;;;4875956;29;20485;-74
2023/12/10 10:48:35;;;;;;;13.60;3.13;;;10.20;76.00;;;;;;4874299;29;21070;-75
2023/12/10 10:51:05;;;;;;;13.13;3.60;;;10.30;76.00;;;;;;4873297;29;20570;-75
2023/12/10 10:53:34;;;;;;;17.90;3.80;;;10.40;76.10;;;;;;4875065;29;20459;-75
2023/12/10 10:56:03;;;;;;;15.50;3.03;;;10.40;76.00;;;;;;4887876;29;20913;-75
2023/12/10 10:58:31;;;;;;;18.90;3.10;;;10.40;75.90;;;;;;4874100;29;20467;-74
2023/12/10 11:00:59;;;;;;;10.73;2.90;;;10.40;75.90;;;;;;4871762;29;20482;-74
2023/12/10 11:03:29;;;;;;;14.37;3.03;;;10.50;75.80;;;;;;4873141;29;20518;-75
2023/12/10 11:06:03;;;;;;;17.87;3.30;;;10.50;75.80;;;;;;4873821;29;20482;-75
2023/12/10 11:08:34;;;;;;;18.47;3.13;;;10.50;75.70;;;;;;4887488;29;20478;-75
2023/12/10 11:11:03;;;;;;;19.03;3.50;;;10.50;75.80;;;;;;4875206;29;20467;-75
2023/12/10 11:13:43;;;;;;;12.70;3.23;;;10.50;75.90;;;;;;4874297;29;20447;-75
2023/12/10 11:16:12;;;;;;;18.23;3.10;;;10.50;75.70;;;;;;4887592;29;20557;-75
2023/12/10 11:18:53;;;;;;;16.87;3.20;;;10.50;75.70;;;;;;4874894;29;20462;-75
2023/12/10 11:21:23;;;;;;;14.87;4.17;;;10.50;75.70;;;;;;4873005;29;20486;-75
2023/12/10 11:23:51;;;;;;;17.77;3.70;;;10.50;75.60;;;;;;4880706;29;20463;-75
2023/12/10 11:26:19;;;;;;;21.80;3.93;;;10.50;75.70;;;;;;4873243;29;20471;-75
2023/12/10 11:28:47;;;;;;;9.87;2.80;;;10.40;75.70;;;;;;4872178;29;20473;-75
2023/12/10 11:31:15;;;;;;;18.40;3.50;;;10.50;75.70;;;;;;4873208;29;20471;-74
2023/12/10 11:33:43;;;;;;;10.63;3.00;;;10.40;75.70;;;;;;4875106;29;20459;-74
2023/12/10 11:36:12;;;;;;;14.23;3.63;;;10.40;75.70;;;;;;4871645;29;21356;-75
2023/12/10 11:39:01;;;;;;;16.13;3.63;;;10.40;75.80;;;;;;4874163;29;20526;-74
2023/12/10 11:41:29;;;;;;;19.07;3.70;;;10.50;75.90;;;;;;4872538;29;20804;-75
2023/12/10 11:43:57;;;;;;;19.10;3.93;;;10.40;75.90;;;;;;4874602;29;20465;-75
2023/12/10 11:46:25;;;;;;;17.50;3.30;;;10.50;76.10;;;;;;4873681;29;20474;-75
2023/12/10 11:49:08;;;;;;;10.47;2.57;;;10.50;76.20;;;;;;4875097;29;20470;-75
2023/12/10 11:51:40;;;;;;;13.00;3.00;;;10.50;76.10;;;;;;4874144;29;20476;-75
2023/12/10 11:54:11;;;;;;;16.10;3.70;;;10.50;76.10;;;;;;4873800;29;20995;-75
2023/12/10 11:56:40;;;;;;;19.43;3.00;;;10.50;76.20;;;;;;4874357;29;20502;-75
2023/12/10 11:59:10;;;;;;;12.07;2.70;;;10.50;76.30;;;;;;4874692;29;20903;-75
2023/12/10 12:01:40;;;;;;;13.73;3.27;;;10.60;76.40;;;;;;4873793;29;20490;-74
2023/12/10 12:04:08;;;;;;;20.47;3.03;;;10.60;76.30;;;;;;4874510;29;20577;-74
2023/12/10 12:06:38;;;;;;;18.17;2.97;;;10.70;76.10;;;;;;4874582;29;20541;-74
2023/12/10 12:09:07;;;;;;;12.40;2.90;;;10.70;76.10;;;;;;4872707;29;20468;-74
2023/12/10 12:11:36;;;;;;;21.33;3.77;;;10.70;76.00;;;;;;4874625;29;20458;-74
2023/12/10 12:14:04;;;;;;;19.47;3.00;;;10.80;75.90;;;;;;4873204;29;20481;-74
2023/12/10 12:16:38;;;;;;;15.60;4.67;;;10.80;76.00;;;;;;4871557;29;20496;-74
2023/12/10 12:19:06;;;;;;;12.47;3.07;;;10.80;75.90;;;;;;4867784;29;20732;-74
2023/12/10 12:21:34;;;;;;;16.90;3.40;;;10.80;76.00;;;;;;4868524;29;20467;-74
2023/12/10 12:24:02;;;;;;;15.93;3.53;;;10.80;76.00;;;;;;4886874;29;21158;-74
2023/12/10 12:26:39;;;;;;;18.53;3.70;;;10.80;75.80;;;;;;4877646;29;20473;-74
2023/12/10 12:29:09;;;;;;;15.30;3.40;;;10.80;75.80;;;;;;4889444;29;20502;-74
2023/12/10 12:31:39;;;;;;;8.63;2.33;;;10.90;75.80;;;;;;4875614;29;20508;-74
2023/12/10 12:34:27;;;;;;;10.33;2.77;;;10.90;75.80;;;;;;4877479;29;20912;-74
2023/12/10 12:36:56;;;;;;;15.40;3.13;;;10.90;75.70;;;;;;4878616;29;21007;-74
2023/12/10 12:39:24;;;;;;;11.07;3.17;;;10.90;75.60;;;;;;4877721;29;20466;-74
2023/12/10 12:41:54;;;;;;;13.37;3.03;;;10.90;75.50;;;;;;4891396;29;20462;-74
2023/12/10 12:44:22;;;;;;;17.77;3.67;;;10.90;75.50;;;;;;4876607;29;20951;-74
2023/12/10 12:46:50;;;;;;;14.20;3.67;;;10.90;75.60;;;;;;4876289;29;20470;-74
2023/12/10 12:49:20;;;;;;;11.67;2.80;;;10.90;75.50;;;;;;4877617;29;20972;-74
2023/12/10 12:51:49;;;;;;;17.17;2.87;;;10.90;75.40;;;;;;4876922;29;20891;-74
2023/12/10 12:54:17;;;;;;;16.83;3.17;;;10.80;75.30;;;;;;4875305;29;20481;-74